Time;durP1;ratioP1;P1;durP2;ratioP2;P2;SDS_P1;SDS_P2;PMS_P1;PMS_P2;Temp;Humidity;BMP_temperature;BMP_pressure;BME280_temperature;BME280_humidity;BME280_pressure;Samples;Min_cycle;Max_cycle;Signal;HPM_P1;HPM_P2
2023/11/15 00:00:48;;;;;;;3.67;1.10;;;12.10;99.90;;;;;;5033267;28;20164;-76
2023/11/15 00:03:13;;;;;;;2.70;1.10;;;12.10;99.90;;;;;;5032881;28;20418;-76
2023/11/15 00:05:39;;;;;;;1.77;0.93;;;12.00;99.90;;;;;;5032738;28;20299;-75
2023/11/15 00:08:04;;;;;;;1.67;0.87;;;12.00;99.90;;;;;;5033055;28;20172;-75
2023/11/15 00:10:31;;;;;;;1.90;1.00;;;12.00;99.90;;;;;;5033078;28;20169;-75
2023/11/15 00:12:57;;;;;;;3.03;0.90;;;12.00;99.90;;;;;;5032735;28;20173;-75
2023/11/15 00:15:23;;;;;;;2.20;0.90;;;12.00;99.90;;;;;;5032783;28;20472;-76
2023/11/15 00:17:48;;;;;;;0.80;0.60;;;12.00;99.90;;;;;;5032735;28;20191;-76
2023/11/15 00:20:15;;;;;;;2.07;1.10;;;12.00;99.90;;;;;;5032944;28;20542;-75
2023/11/15 00:22:41;;;;;;;3.50;1.00;;;12.00;99.90;;;;;;5032905;28;20199;-76
2023/11/15 00:25:08;;;;;;;1.67;1.13;;;11.90;99.90;;;;;;5034263;28;20418;-75
2023/11/15 00:27:34;;;;;;;4.87;1.10;;;11.90;99.90;;;;;;5037038;28;20867;-75
2023/11/15 00:30:00;;;;;;;1.70;1.00;;;12.00;99.90;;;;;;5036798;28;20493;-75
2023/11/15 00:32:25;;;;;;;2.30;0.97;;;11.90;99.90;;;;;;5036774;28;20639;-75
2023/11/15 00:34:51;;;;;;;2.97;0.97;;;11.90;99.90;;;;;;5036541;28;20411;-76
2023/11/15 00:37:17;;;;;;;1.50;0.60;;;11.90;99.90;;;;;;5036245;28;20219;-75
2023/11/15 00:39:42;;;;;;;2.60;1.63;;;11.80;99.90;;;;;;5035800;28;20204;-76
2023/11/15 00:42:10;;;;;;;1.90;0.80;;;11.80;99.90;;;;;;5035377;28;20202;-75
2023/11/15 00:44:36;;;;;;;1.73;0.87;;;11.70;99.90;;;;;;5034893;28;20176;-75
2023/11/15 00:47:03;;;;;;;2.13;0.83;;;11.80;99.90;;;;;;5034827;28;20434;-75
2023/11/15 00:49:29;;;;;;;1.10;0.70;;;11.80;99.90;;;;;;5036108;28;20175;-75
2023/11/15 00:51:56;;;;;;;2.60;1.10;;;11.80;99.90;;;;;;5036089;28;20490;-75
2023/11/15 00:54:25;;;;;;;3.77;0.80;;;11.80;99.90;;;;;;5035966;28;20406;-76
2023/11/15 00:56:50;;;;;;;2.90;1.10;;;11.70;99.90;;;;;;5036143;28;20426;-76
2023/11/15 00:59:21;;;;;;;4.20;1.00;;;11.70;99.90;;;;;;5036157;28;20945;-75
2023/11/15 01:01:57;;;;;;;2.40;1.50;;;11.70;99.90;;;;;;5036473;28;20508;-76
2023/11/15 01:04:26;;;;;;;2.60;1.13;;;11.70;99.90;;;;;;5035880;28;20488;-75
2023/11/15 01:06:52;;;;;;;1.40;1.00;;;11.80;99.90;;;;;;5035740;28;20459;-75
2023/11/15 01:09:17;;;;;;;3.13;1.30;;;11.70;99.90;;;;;;5035766;28;20409;-74
2023/11/15 01:11:43;;;;;;;2.67;1.00;;;11.70;99.90;;;;;;5035745;28;20634;-75
2023/11/15 01:14:11;;;;;;;3.27;1.83;;;11.70;99.90;;;;;;5035913;28;20521;-75
2023/11/15 01:16:36;;;;;;;2.53;0.90;;;11.80;99.90;;;;;;5035744;28;20196;-76
2023/11/15 01:19:02;;;;;;;4.57;1.90;;;11.80;99.90;;;;;;5035599;28;20953;-75
2023/11/15 01:21:27;;;;;;;1.90;1.23;;;11.70;99.90;;;;;;5035599;28;20250;-75
2023/11/15 01:23:53;;;;;;;4.90;1.93;;;11.70;99.90;;;;;;5035541;28;20179;-75
2023/11/15 01:26:19;;;;;;;1.70;1.07;;;11.80;99.90;;;;;;5035375;28;20245;-76
2023/11/15 01:28:44;;;;;;;3.20;1.20;;;11.70;99.90;;;;;;5035404;28;20256;-75
2023/11/15 01:31:10;;;;;;;2.90;1.03;;;11.70;99.90;;;;;;5035598;28;20181;-75
2023/11/15 01:33:35;;;;;;;1.10;1.00;;;11.70;99.90;;;;;;5035229;28;20172;-75
2023/11/15 01:36:01;;;;;;;2.43;1.10;;;11.70;99.90;;;;;;5034901;28;20219;-75
2023/11/15 01:38:29;;;;;;;2.53;1.20;;;11.60;99.90;;;;;;5034436;28;20211;-75
2023/11/15 01:40:55;;;;;;;5.10;1.37;;;11.60;99.90;;;;;;5035543;28;20193;-75
2023/11/15 01:43:20;;;;;;;3.73;1.10;;;11.50;99.90;;;;;;5035516;28;20492;-75
2023/11/15 01:45:50;;;;;;;2.50;1.07;;;11.50;99.90;;;;;;5034774;28;20204;-74
2023/11/15 01:48:16;;;;;;;3.30;1.20;;;11.50;99.90;;;;;;5033052;28;20649;-76
2023/11/15 01:50:46;;;;;;;2.13;0.90;;;11.50;99.90;;;;;;5035000;28;20399;-76
2023/11/15 01:53:12;;;;;;;3.00;1.07;;;11.40;99.90;;;;;;5033725;28;20418;-76
2023/11/15 01:55:38;;;;;;;3.53;1.50;;;11.40;99.90;;;;;;5034757;28;20413;-75
2023/11/15 01:58:06;;;;;;;1.53;0.70;;;11.30;99.90;;;;;;5035078;28;20401;-75
2023/11/15 02:00:34;;;;;;;6.17;1.27;;;11.30;99.90;;;;;;5035332;28;20171;-75
2023/11/15 02:03:00;;;;;;;1.27;0.80;;;11.20;99.90;;;;;;5034858;28;20394;-75
2023/11/15 02:05:26;;;;;;;2.30;1.20;;;11.20;99.90;;;;;;5034738;28;20413;-75
2023/11/15 02:07:52;;;;;;;1.63;1.10;;;11.20;99.90;;;;;;5034663;28;20418;-75
2023/11/15 02:10:19;;;;;;;2.63;1.10;;;11.20;99.90;;;;;;5034719;28;20159;-75
2023/11/15 02:12:46;;;;;;;1.40;1.07;;;11.20;99.90;;;;;;5034656;28;20405;-75
2023/11/15 02:15:14;;;;;;;3.17;0.97;;;11.20;99.90;;;;;;5035108;28;20407;-75
2023/11/15 02:17:40;;;;;;;1.00;0.80;;;11.10;99.90;;;;;;5034514;28;20897;-75
2023/11/15 02:20:08;;;;;;;2.63;1.07;;;11.10;99.90;;;;;;5034559;28;20477;-75
2023/11/15 02:22:34;;;;;;;2.20;1.20;;;11.20;99.90;;;;;;5034711;28;20159;-75
2023/11/15 02:24:59;;;;;;;3.43;0.87;;;11.20;99.90;;;;;;5034562;28;20415;-75
2023/11/15 02:27:25;;;;;;;2.07;1.20;;;11.20;99.90;;;;;;5034510;28;20509;-75
2023/11/15 02:29:51;;;;;;;4.60;1.43;;;11.20;99.90;;;;;;5034235;28;20171;-75
2023/11/15 02:32:16;;;;;;;1.60;0.90;;;11.10;99.90;;;;;;5033267;28;20229;-75
2023/11/15 02:34:42;;;;;;;4.43;1.27;;;11.00;99.90;;;;;;5034662;28;20179;-75
2023/11/15 02:37:09;;;;;;;3.53;1.20;;;11.00;99.90;;;;;;5033663;28;20594;-75
2023/11/15 02:39:34;;;;;;;2.77;1.10;;;10.90;99.90;;;;;;5034313;28;20186;-75
2023/11/15 02:42:00;;;;;;;2.30;0.90;;;11.00;99.90;;;;;;5034454;28;20753;-75
2023/11/15 02:44:26;;;;;;;4.27;1.47;;;10.90;99.90;;;;;;5034208;28;20574;-75
2023/11/15 02:46:51;;;;;;;2.83;1.13;;;10.90;99.90;;;;;;5033973;28;20236;-76
2023/11/15 02:49:17;;;;;;;2.10;1.00;;;10.90;99.90;;;;;;5034013;28;20406;-75
2023/11/15 02:51:42;;;;;;;2.30;1.03;;;11.00;99.90;;;;;;5033773;28;20167;-75
2023/11/15 02:54:08;;;;;;;2.00;1.00;;;10.80;99.90;;;;;;5033706;28;20169;-75
2023/11/15 02:56:33;;;;;;;2.40;1.00;;;10.80;99.90;;;;;;5033720;28;20607;-74
2023/11/15 02:58:59;;;;;;;3.37;1.50;;;10.70;99.90;;;;;;5034219;28;20593;-76
2023/11/15 03:01:25;;;;;;;2.80;1.27;;;10.70;99.90;;;;;;5033847;28;20193;-75
2023/11/15 03:03:50;;;;;;;1.40;1.00;;;10.70;99.90;;;;;;5033695;28;20540;-75
2023/11/15 03:06:16;;;;;;;2.83;1.50;;;10.80;99.90;;;;;;5033569;28;20242;-75
2023/11/15 03:08:41;;;;;;;3.80;1.20;;;10.80;99.90;;;;;;5033612;28;20253;-75
2023/11/15 03:11:07;;;;;;;3.03;1.17;;;10.70;99.90;;;;;;5033534;28;20175;-75
2023/11/15 03:13:33;;;;;;;1.23;0.87;;;10.60;99.90;;;;;;5033834;28;20221;-75
2023/11/15 03:15:58;;;;;;;2.63;1.10;;;10.60;99.90;;;;;;5033279;28;20341;-75
2023/11/15 03:18:24;;;;;;;2.23;1.20;;;10.70;99.90;;;;;;5034049;28;20507;-74
2023/11/15 03:20:50;;;;;;;3.03;0.90;;;10.70;99.90;;;;;;5034702;28;20665;-75
2023/11/15 03:23:16;;;;;;;2.33;1.20;;;10.70;99.90;;;;;;5033746;28;20772;-75
2023/11/15 03:25:42;;;;;;;2.90;1.10;;;10.70;99.90;;;;;;5032345;28;20503;-75
2023/11/15 03:28:08;;;;;;;2.33;0.80;;;10.60;99.90;;;;;;5033261;28;20413;-76
2023/11/15 03:30:34;;;;;;;2.80;0.90;;;10.70;99.90;;;;;;5031916;28;20414;-76
2023/11/15 03:32:59;;;;;;;2.20;1.23;;;10.70;99.90;;;;;;5033112;28;20160;-75
2023/11/15 03:35:25;;;;;;;5.93;1.27;;;10.70;99.90;;;;;;5033280;28;20250;-75
2023/11/15 03:37:52;;;;;;;2.93;0.80;;;10.80;99.90;;;;;;5048140;22;20309;-74
2023/11/15 03:40:19;;;;;;;3.07;1.20;;;10.90;99.90;;;;;;5033853;28;20174;-75
2023/11/15 03:42:45;;;;;;;1.73;0.87;;;10.90;99.90;;;;;;5033090;28;20549;-74
2023/11/15 03:45:11;;;;;;;3.57;1.17;;;10.90;99.90;;;;;;5033105;28;20477;-74
2023/11/15 03:47:37;;;;;;;3.77;1.70;;;10.90;99.90;;;;;;5031609;28;20433;-74
2023/11/15 03:50:04;;;;;;;4.10;1.30;;;10.80;99.90;;;;;;5033243;28;20858;-74
2023/11/15 03:52:30;;;;;;;3.13;1.10;;;10.80;99.90;;;;;;5033995;28;20403;-75
2023/11/15 03:54:56;;;;;;;2.73;1.17;;;10.70;99.90;;;;;;5032581;28;20976;-75
2023/11/15 03:57:22;;;;;;;2.80;1.10;;;10.70;99.90;;;;;;5013154;28;20472;-75
2023/11/15 03:59:47;;;;;;;1.73;1.00;;;10.70;99.90;;;;;;5013313;28;20281;-74
2023/11/15 04:02:13;;;;;;;1.93;1.07;;;10.60;99.90;;;;;;5017513;28;20179;-74
2023/11/15 04:04:39;;;;;;;6.57;1.20;;;10.60;99.90;;;;;;5020431;28;20166;-74
2023/11/15 04:07:04;;;;;;;4.23;0.90;;;10.60;99.90;;;;;;5036878;28;20421;-74
2023/11/15 04:09:34;;;;;;;8.80;1.63;;;10.60;99.90;;;;;;5036784;28;20652;-73
2023/11/15 04:12:00;;;;;;;3.97;1.40;;;10.60;99.90;;;;;;5036868;28;20167;-74
2023/11/15 04:14:27;;;;;;;2.87;1.20;;;10.70;99.90;;;;;;5036746;28;21007;-73
2023/11/15 04:16:52;;;;;;;7.33;1.60;;;10.60;99.90;;;;;;5036585;28;20421;-75
2023/11/15 04:19:21;;;;;;;2.10;1.00;;;10.70;99.90;;;;;;5036598;28;20443;-75
2023/11/15 04:21:47;;;;;;;2.73;1.13;;;10.60;99.90;;;;;;5037074;28;20235;-75
2023/11/15 04:24:12;;;;;;;2.50;1.07;;;10.60;99.90;;;;;;5036768;28;20956;-73
2023/11/15 04:26:38;;;;;;;4.60;1.07;;;10.60;99.90;;;;;;5036203;28;20512;-75
2023/11/15 04:29:04;;;;;;;6.90;1.50;;;10.70;99.90;;;;;;5035827;28;20649;-74
2023/11/15 04:31:29;;;;;;;4.83;1.63;;;10.60;99.90;;;;;;5036527;28;20246;-73
2023/11/15 04:33:55;;;;;;;2.53;1.30;;;10.60;99.90;;;;;;5036408;28;20175;-73
2023/11/15 04:36:21;;;;;;;5.43;1.33;;;10.60;99.90;;;;;;5034990;28;20372;-74
2023/11/15 04:38:50;;;;;;;4.07;1.07;;;10.70;99.90;;;;;;5035289;28;20783;-74
2023/11/15 04:41:16;;;;;;;4.27;1.50;;;10.70;99.90;;;;;;5034938;28;20400;-74
2023/11/15 04:43:41;;;;;;;3.30;1.17;;;10.70;99.90;;;;;;5035206;28;20464;-74
2023/11/15 04:46:07;;;;;;;4.00;1.33;;;10.70;99.90;;;;;;5034772;28;20172;-74
2023/11/15 04:48:33;;;;;;;3.23;1.17;;;10.60;99.90;;;;;;5034887;28;20166;-73
2023/11/15 04:51:00;;;;;;;2.70;1.30;;;10.60;99.90;;;;;;5034752;28;20493;-75
2023/11/15 04:53:25;;;;;;;2.90;0.97;;;10.60;99.90;;;;;;5035040;28;20175;-75
2023/11/15 04:55:51;;;;;;;3.80;1.30;;;10.70;99.90;;;;;;5034717;28;20415;-74
2023/11/15 04:58:17;;;;;;;3.40;1.43;;;10.70;99.90;;;;;;5034644;28;20187;-74
2023/11/15 05:00:42;;;;;;;2.50;1.20;;;10.80;99.90;;;;;;5034912;28;20410;-74
2023/11/15 05:03:10;;;;;;;3.27;0.90;;;10.90;99.90;;;;;;5034589;28;20171;-73
2023/11/15 05:05:36;;;;;;;2.80;1.00;;;10.90;99.90;;;;;;5034918;28;20160;-74
2023/11/15 05:08:01;;;;;;;2.73;1.17;;;11.00;99.90;;;;;;5034758;28;20451;-75
2023/11/15 05:10:27;;;;;;;3.70;1.57;;;11.00;99.90;;;;;;5034821;28;20193;-75
2023/11/15 05:12:52;;;;;;;1.60;0.90;;;11.20;99.90;;;;;;5034519;28;20178;-74
2023/11/15 05:15:18;;;;;;;2.80;1.03;;;11.20;99.90;;;;;;5033157;28;20595;-74
2023/11/15 05:17:43;;;;;;;5.80;1.20;;;11.30;99.90;;;;;;5034285;28;20562;-74
2023/11/15 05:20:10;;;;;;;2.37;1.27;;;11.30;99.90;;;;;;5034246;28;20270;-73
2023/11/15 05:22:36;;;;;;;2.40;1.20;;;11.40;99.90;;;;;;5034254;28;20159;-74
2023/11/15 05:25:04;;;;;;;2.37;0.90;;;11.50;99.90;;;;;;5034252;28;20409;-74
2023/11/15 05:27:30;;;;;;;2.53;1.17;;;11.50;99.90;;;;;;5034318;28;20517;-74
2023/11/15 05:29:56;;;;;;;2.87;1.23;;;11.40;99.90;;;;;;5034452;28;20405;-74
2023/11/15 05:32:21;;;;;;;2.87;1.50;;;11.50;99.90;;;;;;5032956;28;20465;-74
2023/11/15 05:34:47;;;;;;;2.57;1.23;;;11.50;99.90;;;;;;5033768;28;20226;-76
2023/11/15 05:37:13;;;;;;;2.10;1.03;;;11.50;99.90;;;;;;4986432;28;1115062;-75
2023/11/15 05:39:40;;;;;;;2.70;1.10;;;11.30;99.90;;;;;;5025475;28;20463;-72
2023/11/15 05:42:07;;;;;;;2.87;1.10;;;11.40;99.90;;;;;;5030212;28;20186;-75
2023/11/15 05:44:33;;;;;;;3.07;1.40;;;11.30;99.90;;;;;;5034629;28;20409;-73
2023/11/15 05:46:59;;;;;;;2.90;1.37;;;11.40;99.90;;;;;;5035084;28;20420;-73
2023/11/15 05:49:26;;;;;;;2.50;1.67;;;11.50;99.90;;;;;;5033776;28;20405;-74
2023/11/15 05:51:52;;;;;;;9.70;2.10;;;11.50;99.90;;;;;;5035358;28;20458;-75
2023/11/15 05:54:17;;;;;;;2.10;1.30;;;11.40;99.90;;;;;;5034966;28;20442;-74
2023/11/15 05:56:49;;;;;;;2.60;1.60;;;11.30;99.90;;;;;;5034291;28;20901;-74
2023/11/15 05:59:15;;;;;;;3.10;1.60;;;11.10;99.90;;;;;;5034721;28;20202;-75
2023/11/15 06:01:40;;;;;;;2.17;1.60;;;11.00;99.90;;;;;;5034560;28;20767;-74
2023/11/15 06:04:07;;;;;;;2.60;1.40;;;10.90;99.90;;;;;;5034720;28;20401;-74
2023/11/15 06:06:34;;;;;;;2.83;1.30;;;10.70;99.90;;;;;;5034399;28;20972;-73
2023/11/15 06:09:00;;;;;;;1.93;1.37;;;10.70;99.90;;;;;;5034469;28;20424;-74
2023/11/15 06:11:25;;;;;;;8.33;1.50;;;10.60;99.90;;;;;;5034853;28;20404;-74
2023/11/15 06:13:51;;;;;;;5.77;1.67;;;10.60;99.90;;;;;;5034697;28;20178;-74
2023/11/15 06:16:17;;;;;;;4.80;1.70;;;10.60;99.90;;;;;;5034303;28;20186;-74
2023/11/15 06:18:43;;;;;;;4.00;1.13;;;10.50;99.90;;;;;;5034346;28;20240;-75
2023/11/15 06:21:10;;;;;;;2.73;1.10;;;10.30;99.90;;;;;;5034056;28;20413;-76
2023/11/15 06:23:36;;;;;;;2.40;1.53;;;10.30;99.90;;;;;;5033123;28;20657;-74
2023/11/15 06:26:01;;;;;;;7.30;4.77;;;10.40;99.90;;;;;;5033865;28;20405;-76
2023/11/15 06:28:30;;;;;;;10.37;9.00;;;10.30;99.90;;;;;;5034179;28;20180;-76
2023/11/15 06:30:55;;;;;;;16.70;12.80;;;10.40;99.90;;;;;;5034138;28;20289;-75
2023/11/15 06:33:21;;;;;;;16.93;14.37;;;10.40;99.90;;;;;;5034518;28;20466;-75
2023/11/15 06:35:46;;;;;;;23.17;16.83;;;10.50;99.90;;;;;;5033966;28;20561;-74
2023/11/15 06:38:13;;;;;;;5.17;3.00;;;10.30;99.90;;;;;;5032589;28;20249;-76
2023/11/15 06:40:39;;;;;;;4.10;3.80;;;10.50;99.90;;;;;;5032677;28;20176;-77
2023/11/15 06:43:06;;;;;;;4.30;1.90;;;10.40;99.90;;;;;;5033918;28;20409;-76
2023/11/15 06:45:32;;;;;;;5.37;2.90;;;10.40;99.90;;;;;;5033887;28;20541;-74
2023/11/15 06:47:59;;;;;;;6.43;3.07;;;10.50;99.90;;;;;;5033892;28;20432;-75
2023/11/15 06:50:25;;;;;;;3.10;2.80;;;10.40;99.90;;;;;;5033748;28;20455;-75
2023/11/15 06:52:51;;;;;;;4.43;3.23;;;10.50;99.90;;;;;;5033302;28;20409;-75
2023/11/15 06:55:17;;;;;;;2.27;2.00;;;10.60;99.90;;;;;;5033921;28;20405;-73
2023/11/15 06:57:44;;;;;;;3.03;1.50;;;10.80;99.90;;;;;;5033638;28;20182;-75
2023/11/15 07:00:11;;;;;;;2.90;1.53;;;10.90;99.90;;;;;;5033623;28;20468;-75
2023/11/15 07:02:37;;;;;;;6.80;4.17;;;10.90;99.90;;;;;;5033783;28;20457;-74
2023/11/15 07:05:07;;;;;;;6.57;3.50;;;10.90;99.90;;;;;;5033929;28;20927;-75
2023/11/15 07:07:33;;;;;;;4.57;2.87;;;10.90;99.90;;;;;;5032122;28;20433;-75
2023/11/15 07:09:58;;;;;;;3.33;1.83;;;10.90;99.90;;;;;;5033320;28;20409;-75
2023/11/15 07:12:25;;;;;;;2.80;1.50;;;10.80;99.90;;;;;;5033578;28;20417;-75
2023/11/15 07:14:51;;;;;;;3.03;1.70;;;10.70;99.90;;;;;;5031647;28;20421;-74
2023/11/15 07:17:19;;;;;;;2.53;1.60;;;10.80;99.90;;;;;;5034167;28;20665;-76
2023/11/15 07:19:45;;;;;;;3.83;1.90;;;10.80;99.90;;;;;;5033087;28;20439;-75
2023/11/15 07:22:10;;;;;;;2.50;2.07;;;10.80;99.90;;;;;;5033285;28;20417;-76
2023/11/15 07:24:39;;;;;;;3.77;1.70;;;10.80;99.90;;;;;;5033240;28;20410;-76
2023/11/15 07:27:08;;;;;;;9.03;2.10;;;10.90;99.90;;;;;;5033159;28;20186;-76
2023/11/15 07:29:35;;;;;;;4.20;1.70;;;11.00;99.90;;;;;;5033067;28;20402;-75
2023/11/15 07:32:03;;;;;;;7.20;1.87;;;11.10;99.90;;;;;;5033036;28;20409;-74
2023/11/15 07:34:31;;;;;;;2.13;1.43;;;11.10;99.90;;;;;;5033719;28;20409;-77
2023/11/15 07:36:57;;;;;;;4.07;2.10;;;11.20;99.90;;;;;;5033106;28;20967;-77
2023/11/15 07:39:24;;;;;;;4.30;2.63;;;11.20;99.90;;;;;;5032796;28;20497;-75
2023/11/15 07:41:51;;;;;;;4.23;2.50;;;11.10;99.90;;;;;;5035296;28;20429;-77
2023/11/15 07:44:18;;;;;;;6.47;3.23;;;11.10;99.90;;;;;;5035402;28;20421;-77
2023/11/15 07:46:46;;;;;;;2.70;1.80;;;11.10;99.90;;;;;;5033385;28;20644;-75
2023/11/15 07:49:18;;;;;;;3.60;1.60;;;11.20;99.90;;;;;;5033612;28;20414;-76
2023/11/15 07:51:44;;;;;;;3.97;1.40;;;11.00;99.90;;;;;;5032484;28;20411;-78
2023/11/15 07:54:10;;;;;;;4.23;1.77;;;10.90;99.90;;;;;;5032271;28;20399;-77
2023/11/15 07:56:35;;;;;;;5.17;1.83;;;11.00;99.90;;;;;;5032215;28;20444;-77
2023/11/15 07:59:01;;;;;;;7.20;2.70;;;11.00;99.90;;;;;;5032794;28;20276;-75
2023/11/15 08:01:27;;;;;;;4.97;1.87;;;11.00;99.90;;;;;;5031671;28;20196;-76
2023/11/15 08:03:53;;;;;;;4.03;1.87;;;11.10;99.90;;;;;;5032180;28;20190;-75
2023/11/15 08:06:19;;;;;;;4.30;2.00;;;11.20;99.90;;;;;;5033966;28;20440;-76
2023/11/15 08:08:44;;;;;;;7.67;2.10;;;11.00;99.90;;;;;;5033739;28;20498;-76
2023/11/15 08:11:11;;;;;;;10.00;2.80;;;11.00;99.90;;;;;;5012986;28;20616;-76
2023/11/15 08:13:37;;;;;;;7.03;2.50;;;11.00;99.90;;;;;;5012823;28;20205;-77
2023/11/15 08:16:03;;;;;;;5.53;2.07;;;11.10;99.90;;;;;;5013392;28;20439;-76
2023/11/15 08:18:30;;;;;;;8.10;2.67;;;11.10;99.90;;;;;;5013085;28;20196;-75
2023/11/15 08:20:56;;;;;;;3.47;2.20;;;11.20;99.90;;;;;;5030600;28;20430;-76
2023/11/15 08:23:23;;;;;;;3.57;2.40;;;11.50;99.90;;;;;;5031953;28;20441;-76
2023/11/15 08:25:50;;;;;;;3.77;2.17;;;11.40;99.90;;;;;;5032583;28;20163;-77
2023/11/15 08:28:22;;;;;;;5.00;1.90;;;11.50;99.90;;;;;;5033290;28;20527;-75
2023/11/15 08:30:48;;;;;;;6.57;1.90;;;11.30;99.90;;;;;;5032739;28;20394;-76
2023/11/15 08:33:15;;;;;;;5.70;3.30;;;11.30;99.90;;;;;;5031336;28;20418;-76
2023/11/15 08:35:43;;;;;;;4.67;2.53;;;11.10;99.90;;;;;;5032523;28;20163;-75
2023/11/15 08:38:09;;;;;;;5.07;2.23;;;11.30;99.90;;;;;;5031092;28;20450;-76
2023/11/15 08:40:35;;;;;;;4.30;1.63;;;11.20;99.90;;;;;;5032634;28;20413;-76
2023/11/15 08:43:02;;;;;;;4.63;2.27;;;11.30;99.90;;;;;;5032602;28;20621;-76
2023/11/15 08:45:28;;;;;;;5.53;1.87;;;11.50;99.90;;;;;;5032613;28;20758;-75
2023/11/15 08:47:56;;;;;;;5.33;2.07;;;11.60;99.90;;;;;;5035609;28;20433;-74
2023/11/15 08:50:24;;;;;;;4.77;2.20;;;11.60;99.90;;;;;;5036653;28;20388;-74
2023/11/15 08:52:49;;;;;;;6.00;1.63;;;11.70;99.90;;;;;;5036291;28;20431;-77
2023/11/15 08:55:15;;;;;;;4.37;2.00;;;11.70;99.90;;;;;;5036865;28;20846;-77
2023/11/15 08:57:41;;;;;;;3.50;2.10;;;11.60;99.90;;;;;;5036036;28;20230;-76
2023/11/15 09:00:12;;;;;;;5.67;1.97;;;11.50;99.90;;;;;;5035805;28;20235;-76
2023/11/15 09:02:44;;;;;;;6.97;2.20;;;11.50;99.90;;;;;;5037255;28;20209;-77
2023/11/15 09:05:11;;;;;;;4.13;2.10;;;11.30;99.90;;;;;;5035301;28;20758;-76
2023/11/15 09:07:37;;;;;;;4.70;2.20;;;11.40;99.90;;;;;;5035921;28;20427;-77
2023/11/15 09:10:04;;;;;;;4.37;2.67;;;11.50;99.90;;;;;;5036222;28;20422;-76
2023/11/15 09:12:31;;;;;;;3.60;1.77;;;11.80;99.90;;;;;;5035661;28;20179;-74
2023/11/15 09:14:59;;;;;;;4.43;1.70;;;11.80;99.90;;;;;;5035621;28;20414;-76
2023/11/15 09:17:25;;;;;;;5.20;2.40;;;11.70;99.90;;;;;;5036276;28;20752;-78
2023/11/15 09:19:56;;;;;;;3.53;1.77;;;11.80;99.90;;;;;;5035481;28;20497;-77
2023/11/15 09:22:22;;;;;;;4.20;2.00;;;12.00;99.90;;;;;;5036152;28;20245;-77
2023/11/15 09:24:53;;;;;;;5.10;1.40;;;12.10;99.90;;;;;;5034084;28;20565;-76
2023/11/15 09:27:22;;;;;;;2.63;1.37;;;11.90;99.90;;;;;;5035402;28;20596;-76
2023/11/15 09:29:50;;;;;;;1.90;1.10;;;12.10;99.90;;;;;;5035457;28;20894;-74
2023/11/15 09:32:16;;;;;;;3.23;1.33;;;12.30;99.90;;;;;;5034125;28;20542;-75
2023/11/15 09:34:41;;;;;;;3.70;1.40;;;12.10;99.90;;;;;;5035560;28;20425;-74
2023/11/15 09:37:07;;;;;;;2.67;1.20;;;12.00;99.90;;;;;;5035855;28;20317;-72
2023/11/15 09:39:33;;;;;;;2.33;1.17;;;11.80;99.90;;;;;;5035058;28;20275;-75
2023/11/15 09:41:59;;;;;;;2.00;1.23;;;11.80;99.90;;;;;;5035051;28;20263;-73
2023/11/15 09:44:26;;;;;;;3.03;1.07;;;11.70;99.90;;;;;;5035725;28;20169;-78
2023/11/15 09:46:53;;;;;;;2.37;1.23;;;11.90;99.90;;;;;;5035453;28;20504;-77
2023/11/15 09:49:20;;;;;;;2.20;1.27;;;12.20;99.90;;;;;;5035608;28;20407;-76
2023/11/15 09:51:46;;;;;;;4.83;1.40;;;12.50;99.90;;;;;;5038037;28;20411;-77
2023/11/15 09:54:12;;;;;;;4.80;1.30;;;12.70;99.90;;;;;;5041456;28;20423;-77
2023/11/15 09:56:44;;;;;;;1.93;1.23;;;12.40;99.90;;;;;;5037255;28;20228;-76
2023/11/15 09:59:09;;;;;;;2.30;1.33;;;12.50;99.90;;;;;;5034311;28;20870;-75
2023/11/15 10:01:41;;;;;;;2.50;1.40;;;12.60;99.90;;;;;;5034776;28;20502;-75
2023/11/15 10:04:07;;;;;;;2.80;1.07;;;12.70;99.90;;;;;;5034883;28;20613;-76
2023/11/15 10:06:42;;;;;;;3.03;1.30;;;12.60;99.90;;;;;;5034659;28;20415;-75
2023/11/15 10:09:08;;;;;;;2.77;1.03;;;12.40;99.90;;;;;;5034586;28;20171;-75
2023/11/15 10:11:36;;;;;;;2.60;1.20;;;12.40;99.90;;;;;;5034485;28;20974;-74
2023/11/15 10:14:15;;;;;;;4.67;1.37;;;12.50;99.90;;;;;;5034257;28;20569;-75
2023/11/15 10:16:48;;;;;;;4.07;1.37;;;12.70;99.90;;;;;;5034850;28;20935;-77
2023/11/15 10:19:26;;;;;;;1.37;1.07;;;12.50;99.90;;;;;;5034768;28;20488;-77
2023/11/15 10:22:14;;;;;;;4.10;1.53;;;12.50;99.90;;;;;;5033880;28;20406;-76
2023/11/15 10:24:40;;;;;;;2.77;1.00;;;12.60;99.90;;;;;;5033085;28;20419;-75
2023/11/15 10:27:14;;;;;;;2.97;1.07;;;12.40;99.90;;;;;;5034268;28;20456;-75
2023/11/15 10:29:45;;;;;;;1.63;0.97;;;12.40;99.90;;;;;;5034462;28;20398;-76
2023/11/15 10:32:11;;;;;;;1.30;0.90;;;12.60;99.90;;;;;;5035051;28;20768;-77
2023/11/15 10:34:48;;;;;;;1.70;0.90;;;12.40;99.90;;;;;;5034344;28;20422;-76
2023/11/15 10:37:14;;;;;;;1.63;0.90;;;12.40;99.90;;;;;;5034473;28;20239;-76
2023/11/15 10:39:43;;;;;;;2.10;1.07;;;12.70;99.90;;;;;;5032694;28;20485;-76
2023/11/15 10:42:14;;;;;;;3.40;1.00;;;12.70;99.90;;;;;;5034186;28;20594;-77
2023/11/15 10:44:46;;;;;;;2.70;1.10;;;12.70;99.90;;;;;;5034141;28;20957;-76
2023/11/15 10:47:22;;;;;;;2.80;1.10;;;12.80;99.90;;;;;;5034220;28;20436;-77
2023/11/15 10:50:05;;;;;;;1.53;1.10;;;12.80;99.90;;;;;;5034048;28;20409;-76
2023/11/15 10:52:31;;;;;;;3.07;1.10;;;12.80;99.90;;;;;;5034348;28;20886;-76
2023/11/15 10:54:59;;;;;;;4.57;1.17;;;12.60;99.90;;;;;;5034115;28;20905;-76
2023/11/15 10:57:28;;;;;;;1.30;0.77;;;12.50;99.90;;;;;;5033793;28;20516;-76
2023/11/15 10:59:56;;;;;;;4.40;1.10;;;12.50;99.90;;;;;;5033892;28;20456;-76
2023/11/15 11:02:24;;;;;;;0.80;0.60;;;13.20;99.90;;;;;;5032524;28;20904;-76
2023/11/15 11:04:53;;;;;;;2.83;1.17;;;13.60;99.90;;;;;;5033897;28;20407;-76
2023/11/15 11:07:43;;;;;;;3.20;1.60;;;13.60;99.90;;;;;;5032293;28;20479;-76
2023/11/15 11:10:41;;;;;;;1.10;0.93;;;13.40;99.90;;;;;;5033065;28;20421;-76
2023/11/15 11:13:18;;;;;;;2.03;1.00;;;13.50;99.90;;;;;;5032215;28;20415;-75
2023/11/15 11:15:47;;;;;;;2.83;1.20;;;13.40;99.90;;;;;;5032631;28;20448;-76
2023/11/15 11:18:15;;;;;;;3.20;1.33;;;13.20;99.90;;;;;;5033204;28;20935;-75
2023/11/15 11:20:54;;;;;;;5.90;1.30;;;13.90;99.90;;;;;;5033235;28;20444;-75
2023/11/15 11:23:21;;;;;;;1.57;0.87;;;15.10;99.90;;;;;;5033255;28;20427;-75
2023/11/15 11:25:48;;;;;;;4.07;1.33;;;15.00;99.90;;;;;;5032056;28;20413;-74
2023/11/15 11:28:14;;;;;;;4.10;1.30;;;15.20;99.90;;;;;;5033187;28;20451;-75
2023/11/15 11:30:41;;;;;;;2.13;0.93;;;14.90;99.90;;;;;;5033381;28;20416;-75
2023/11/15 11:33:13;;;;;;;3.83;1.20;;;14.60;99.90;;;;;;5033357;28;20814;-75
2023/11/15 11:35:40;;;;;;;2.90;1.10;;;14.90;99.90;;;;;;5033340;28;20392;-76
2023/11/15 11:38:10;;;;;;;2.50;1.00;;;15.50;99.90;;;;;;5032998;28;20439;-75
2023/11/15 11:40:39;;;;;;;2.20;0.90;;;16.20;99.90;;;;;;5033216;28;20474;-75
2023/11/15 11:43:12;;;;;;;1.77;1.13;;;16.80;99.90;;;;;;5033005;28;20460;-75
2023/11/15 11:45:37;;;;;;;4.50;1.30;;;17.20;99.90;;;;;;5033025;28;20401;-74
2023/11/15 11:48:03;;;;;;;3.50;1.23;;;16.90;99.90;;;;;;5032960;28;20422;-75
2023/11/15 11:50:29;;;;;;;1.20;0.60;;;16.90;99.90;;;;;;5032669;28;20167;-74
2023/11/15 11:52:59;;;;;;;2.93;0.87;;;17.50;99.90;;;;;;5032841;28;20171;-74
2023/11/15 11:55:26;;;;;;;2.03;1.00;;;17.40;99.90;;;;;;5033462;28;20234;-77
2023/11/15 11:57:51;;;;;;;2.20;1.23;;;16.30;99.90;;;;;;5034271;28;20425;-80
2023/11/15 12:00:20;;;;;;;1.80;1.00;;;16.70;99.90;;;;;;5035715;28;20450;-77
2023/11/15 12:02:53;;;;;;;2.50;0.90;;;17.30;99.90;;;;;;5034461;28;20191;-77
2023/11/15 12:05:23;;;;;;;2.00;1.00;;;18.00;99.90;;;;;;5035543;28;20406;-77
2023/11/15 12:07:51;;;;;;;2.63;1.17;;;18.10;99.90;;;;;;5035570;28;20441;-75
2023/11/15 12:10:18;;;;;;;3.37;1.20;;;18.00;99.90;;;;;;5043096;28;20779;-80
2023/11/15 12:12:56;;;;;;;1.53;0.83;;;18.30;99.90;;;;;;5034044;28;20841;-76
2023/11/15 12:15:24;;;;;;;2.03;1.00;;;18.80;99.90;;;;;;5033183;28;20390;-76
2023/11/15 12:17:52;;;;;;;1.70;1.00;;;19.00;99.90;;;;;;5032965;28;20985;-76
2023/11/15 12:20:28;;;;;;;3.00;1.03;;;18.60;99.50;;;;;;5033026;28;20544;-77
2023/11/15 12:23:03;;;;;;;3.43;1.00;;;18.30;99.50;;;;;;5036546;28;20401;-77
2023/11/15 12:25:52;;;;;;;2.07;0.97;;;18.20;99.50;;;;;;5037202;28;20401;-75
2023/11/15 12:28:26;;;;;;;3.77;1.37;;;17.20;99.90;;;;;;5039479;28;20817;-78
2023/11/15 12:30:53;;;;;;;3.57;1.40;;;16.40;99.90;;;;;;5038399;28;20401;-78
2023/11/15 12:33:20;;;;;;;2.20;1.30;;;15.30;99.90;;;;;;5039038;28;20913;-77
2023/11/15 12:35:47;;;;;;;4.83;1.00;;;14.60;99.90;;;;;;5036870;28;20455;-78
2023/11/15 12:38:14;;;;;;;2.90;1.13;;;14.60;99.90;;;;;;5038415;28;20444;-77
2023/11/15 12:40:41;;;;;;;1.73;1.00;;;14.70;99.90;;;;;;5035320;28;20410;-79
2023/11/15 12:43:21;;;;;;;2.53;1.00;;;14.60;99.90;;;;;;5036374;28;20416;-75
2023/11/15 12:45:48;;;;;;;1.83;1.07;;;14.60;99.90;;;;;;5036440;28;20377;-75